createdAt,value
2018-07-01T00:00:45.877Z,24.17
2018-07-01T00:03:14.406Z,24.10
2018-07-01T00:05:43.043Z,24.01
2018-07-01T00:08:11.922Z,23.95
2018-07-01T00:10:40.466Z,23.94
2018-07-01T00:13:11.808Z,23.89
2018-07-01T00:15:54.833Z,23.78
2018-07-01T00:18:23.368Z,23.68
2018-07-01T00:20:52.306Z,23.59
2018-07-01T00:23:20.814Z,23.55
2018-07-01T00:25:55.158Z,23.52
2018-07-01T00:28:23.684Z,23.49
2018-07-01T00:30:52.164Z,23.47
2018-07-01T00:33:21.096Z,23.44
2018-07-01T00:35:49.737Z,23.44
2018-07-01T00:38:20.502Z,23.43
2018-07-01T00:40:49.444Z,23.40
2018-07-01T00:43:17.984Z,23.39
2018-07-01T00:45:46.515Z,23.38
2018-07-01T00:48:16.624Z,23.36
2018-07-01T00:50:45.167Z,23.33
2018-07-01T00:53:13.696Z,23.33
2018-07-01T00:55:45.140Z,23.32
2018-07-01T00:58:13.605Z,23.28
2018-07-01T01:00:42.194Z,23.27
2018-07-01T01:03:10.708Z,23.27
2018-07-01T01:05:39.194Z,23.28
2018-07-01T01:08:08.318Z,23.26
2018-07-01T01:10:37.219Z,23.24
2018-07-01T01:13:05.897Z,23.21
2018-07-01T01:15:34.415Z,23.17
2018-07-01T01:18:05.236Z,23.09
2018-07-01T01:20:33.738Z,23.10
2018-07-01T01:23:13.243Z,23.11
2018-07-01T01:25:42.060Z,23.10
2018-07-01T01:28:10.570Z,23.07
2018-07-01T01:30:39.091Z,23.02
2018-07-01T01:33:08.094Z,23.01
2018-07-01T01:35:37.169Z,22.99
2018-07-01T01:38:05.939Z,22.95
2018-07-01T01:40:38.908Z,22.91
2018-07-01T01:43:11.083Z,22.86
2018-07-01T01:45:50.344Z,22.80
2018-07-01T01:48:28.332Z,22.72
2018-07-01T01:51:01.138Z,22.69
2018-07-01T01:54:04.600Z,22.64
2018-07-01T01:56:38.465Z,22.64
2018-07-01T01:59:20.853Z,22.59
2018-07-01T02:01:55.339Z,22.57
2018-07-01T02:04:33.888Z,22.55
2018-07-01T02:07:06.253Z,22.49
2018-07-01T02:09:39.134Z,22.48
2018-07-01T02:12:09.838Z,22.47
2018-07-01T02:14:54.797Z,22.45
2018-07-01T02:17:28.593Z,22.41
2018-07-01T02:19:57.175Z,22.40
2018-07-01T02:22:33.912Z,22.38
2018-07-01T02:25:05.073Z,22.37
2018-07-01T02:27:33.619Z,22.35
2018-07-01T02:30:04.806Z,22.33
2018-07-01T02:32:33.912Z,22.28
2018-07-01T02:35:02.485Z,22.25
2018-07-01T02:37:30.995Z,22.18
2018-07-01T02:40:06.336Z,22.16
2018-07-01T02:42:34.865Z,22.14
2018-07-01T02:45:03.869Z,22.11
2018-07-01T02:47:32.720Z,22.09
2018-07-01T02:50:01.248Z,22.05
2018-07-01T02:54:57.261Z,21.93
2018-07-01T02:57:26.167Z,21.90
2018-07-01T02:59:54.783Z,21.83
2018-07-01T03:02:29.114Z,21.78
2018-07-01T03:04:57.648Z,21.78
2018-07-01T03:07:26.764Z,21.76
2018-07-01T03:09:55.692Z,21.75
2018-07-01T03:12:24.205Z,21.71
2018-07-01T03:14:52.696Z,21.67
2018-07-01T03:17:21.636Z,21.64
2018-07-01T03:19:57.053Z,21.60
2018-07-01T03:22:25.836Z,21.54
2018-07-01T03:24:58.069Z,21.47
2018-07-01T03:27:26.589Z,21.43
2018-07-01T03:30:01.994Z,21.42
2018-07-01T03:32:30.459Z,21.37
2018-07-01T03:35:05.222Z,21.34
2018-07-01T03:37:34.150Z,21.32
2018-07-01T03:40:03.312Z,21.33
2018-07-01T03:42:31.871Z,21.30
2018-07-01T03:45:00.336Z,21.27
2018-07-01T03:47:28.815Z,21.26
2018-07-01T03:49:58.681Z,21.25
2018-07-01T03:52:27.197Z,21.24
2018-07-01T03:54:58.988Z,21.24
2018-07-01T03:57:28.037Z,21.23
2018-07-01T03:59:56.592Z,21.25
2018-07-01T04:02:25.117Z,21.22
2018-07-01T04:04:56.806Z,21.19
2018-07-01T04:07:25.424Z,21.18
2018-07-01T04:09:53.977Z,21.16
2018-07-01T04:12:28.594Z,21.16
2018-07-01T04:14:57.322Z,21.16
2018-07-01T04:17:31.874Z,21.15
2018-07-01T04:20:23.726Z,21.15
2018-07-01T04:22:57.071Z,21.16
2018-07-01T04:25:25.876Z,21.16
2018-07-01T04:27:54.440Z,21.16
2018-07-01T04:30:23.287Z,21.16
2018-07-01T04:32:52.278Z,21.15
2018-07-01T04:35:20.775Z,21.19
2018-07-01T04:37:49.308Z,21.22
2018-07-01T04:40:18.135Z,21.23
2018-07-01T04:42:46.618Z,21.24
2018-07-01T04:45:15.172Z,21.26
2018-07-01T04:47:43.924Z,21.30
2018-07-01T04:50:12.429Z,21.35
2018-07-01T04:52:40.981Z,21.37
2018-07-01T04:55:09.972Z,21.40
2018-07-01T04:57:38.461Z,21.47
2018-07-01T05:00:07.022Z,21.47
2018-07-01T05:02:35.883Z,21.53
2018-07-01T05:05:06.316Z,21.58
2018-07-01T05:07:34.840Z,21.63
2018-07-01T05:10:04.699Z,21.67
2018-07-01T05:12:33.229Z,21.75
2018-07-01T05:15:01.670Z,21.80
2018-07-01T05:17:30.495Z,21.87
2018-07-01T05:19:58.958Z,21.93
2018-07-01T05:22:27.488Z,22.00
2018-07-01T05:24:56.301Z,22.06
2018-07-01T05:27:25.041Z,22.10
2018-07-01T05:30:04.376Z,22.17
2018-07-01T05:32:33.128Z,22.22
2018-07-01T05:35:01.572Z,22.27
2018-07-01T05:37:30.139Z,22.32
2018-07-01T05:39:58.977Z,22.34
2018-07-01T05:42:27.531Z,22.46
2018-07-01T05:44:56.112Z,22.55
2018-07-01T05:47:24.949Z,22.63
2018-07-01T05:49:53.496Z,22.68
2018-07-01T05:52:28.593Z,22.77
2018-07-01T05:54:57.103Z,22.84
2018-07-01T05:57:30.715Z,22.93
2018-07-01T05:59:59.524Z,23.04
2018-07-01T06:02:28.049Z,23.14
2018-07-01T06:04:56.629Z,23.19
2018-07-01T06:07:25.449Z,23.28
2018-07-01T06:09:55.785Z,23.33
2018-07-01T06:12:24.383Z,23.33
2018-07-01T06:14:53.184Z,23.40
2018-07-01T06:17:21.725Z,23.44
2018-07-01T06:19:50.310Z,23.46
2018-07-01T06:22:19.146Z,23.54
2018-07-01T06:24:47.755Z,23.60
2018-07-01T06:27:16.365Z,23.65
2018-07-01T06:29:45.747Z,23.71
2018-07-01T06:32:14.319Z,23.74
2018-07-01T06:34:42.888Z,23.83
2018-07-01T06:37:11.420Z,23.91
2018-07-01T06:39:39.934Z,23.99
2018-07-01T06:42:08.719Z,24.05
2018-07-01T06:44:38.020Z,24.09
2018-07-01T06:47:06.575Z,24.11
2018-07-01T06:49:35.230Z,24.17
2018-07-01T06:52:04.476Z,24.25
2018-07-01T06:54:33.246Z,24.31
2018-07-01T06:57:02.856Z,24.28
2018-07-01T06:59:31.376Z,24.28
2018-07-01T07:04:35.069Z,24.32
2018-07-01T07:07:03.948Z,24.38
2018-07-01T07:09:32.477Z,24.46
2018-07-01T07:12:01.013Z,24.45
2018-07-01T07:14:30.095Z,24.47
2018-07-01T07:16:58.628Z,24.48
2018-07-01T07:19:27.768Z,24.51
2018-07-01T07:21:56.620Z,24.49
2018-07-01T07:24:25.190Z,24.45
2018-07-01T07:26:53.725Z,24.48
2018-07-01T07:29:22.224Z,24.50
2018-07-01T07:31:50.767Z,24.50
2018-07-01T07:34:19.535Z,24.52
2018-07-01T07:36:48.445Z,24.50
2018-07-01T07:39:22.480Z,24.53
2018-07-01T07:41:50.983Z,24.57
2018-07-01T07:44:19.495Z,24.61
2018-07-01T07:46:48.057Z,24.65
2018-07-01T07:49:16.884Z,24.68
2018-07-01T07:51:45.497Z,24.64
2018-07-01T07:54:14.112Z,24.61
2018-07-01T07:56:43.857Z,24.63
2018-07-01T07:59:12.425Z,24.66
2018-07-01T08:01:40.994Z,24.68
2018-07-01T08:04:09.861Z,24.68
2018-07-01T08:06:40.215Z,24.69
2018-07-01T08:09:10.126Z,24.67
2018-07-01T08:11:38.961Z,24.67
2018-07-01T08:14:07.676Z,24.63
2018-07-01T08:16:38.435Z,24.56
2018-07-01T08:19:07.245Z,24.56
2018-07-01T08:21:36.371Z,24.57
2018-07-01T08:24:06.058Z,24.56
2018-07-01T08:26:34.845Z,24.53
2018-07-01T08:29:04.381Z,24.42
2018-07-01T08:31:32.956Z,24.44
2018-07-01T08:34:03.245Z,24.48
2018-07-01T08:36:31.837Z,24.46
2018-07-01T08:39:00.435Z,24.47
2018-07-01T08:41:34.376Z,24.56
2018-07-01T08:44:06.356Z,24.54
2018-07-01T08:46:34.965Z,24.58
2018-07-01T08:49:05.746Z,24.58
2018-07-01T08:51:34.286Z,24.63
2018-07-01T08:54:03.732Z,24.68
2018-07-01T08:56:32.414Z,24.69
2018-07-01T09:01:40.536Z,24.76
2018-07-01T09:04:09.095Z,24.79
2018-07-01T09:06:37.595Z,24.85
2018-07-01T09:09:08.071Z,24.87
2018-07-01T09:11:36.616Z,24.89
2018-07-01T09:14:05.744Z,24.94
2018-07-01T09:16:34.986Z,24.96
2018-07-01T09:19:04.284Z,25.02
2018-07-01T09:21:32.810Z,24.95
2018-07-01T09:24:03.626Z,24.94
2018-07-01T09:26:32.152Z,24.92
2018-07-01T09:29:00.709Z,25.00
2018-07-01T09:31:39.620Z,25.05
2018-07-01T09:34:08.233Z,25.08
2018-07-01T09:36:37.095Z,25.07
2018-07-01T09:39:08.699Z,25.11
2018-07-01T09:41:37.224Z,25.11
2018-07-01T09:44:06.999Z,25.16
2018-07-01T09:46:36.058Z,25.19
2018-07-01T09:49:04.906Z,25.26
2018-07-01T09:51:33.861Z,25.32
2018-07-01T09:54:04.597Z,25.36
2018-07-01T09:56:33.185Z,25.33
2018-07-01T09:59:02.023Z,25.42
2018-07-01T10:01:35.412Z,25.53
2018-07-01T10:04:06.109Z,25.68
2018-07-01T10:06:34.731Z,25.82
2018-07-01T10:09:03.447Z,25.93
2018-07-01T10:11:33.272Z,26.03
2018-07-01T10:14:01.863Z,26.12
2018-07-01T10:16:30.436Z,26.26
2018-07-01T10:18:59.021Z,26.32
2018-07-01T10:21:32.311Z,26.45
2018-07-01T10:24:02.854Z,26.55
2018-07-01T10:26:31.493Z,26.76
2018-07-01T10:29:03.040Z,26.90
2018-07-01T10:31:31.879Z,27.06
2018-07-01T10:34:15.563Z,27.24
2018-07-01T10:36:44.404Z,27.43
2018-07-01T10:39:14.684Z,27.53
2018-07-01T10:41:48.088Z,27.76
2018-07-01T10:44:17.879Z,27.97
2018-07-01T10:46:48.605Z,28.16
2018-07-01T10:49:17.126Z,28.33
2018-07-01T10:51:49.054Z,28.48
2018-07-01T10:54:17.596Z,28.62
2018-07-01T10:56:49.604Z,28.80
2018-07-01T10:59:18.465Z,28.95
2018-07-01T11:01:46.970Z,29.11
2018-07-01T11:04:15.524Z,29.26
2018-07-01T11:06:44.348Z,29.47
2018-07-01T11:11:52.991Z,29.16
2018-07-01T11:14:21.823Z,29.54
2018-07-01T11:16:50.328Z,29.87
2018-07-01T11:19:18.892Z,30.11
2018-07-01T11:21:47.753Z,30.38
2018-07-01T11:24:16.345Z,30.36
2018-07-01T11:26:45.764Z,30.53
2018-07-01T11:29:14.527Z,30.70
2018-07-01T11:31:43.027Z,30.81
2018-07-01T11:34:11.601Z,31.09
2018-07-01T11:36:44.964Z,31.44
2018-07-01T11:39:13.530Z,31.76
2018-07-01T11:41:42.184Z,31.99
2018-07-01T11:44:11.078Z,32.13
2018-07-01T11:46:39.709Z,32.23
2018-07-01T11:49:08.222Z,32.14
2018-07-01T11:51:37.796Z,32.35
2018-07-01T11:54:06.355Z,32.48
2018-07-01T11:56:34.943Z,32.70
2018-07-01T11:59:04.252Z,32.88
2018-07-01T12:01:32.797Z,33.04
2018-07-01T12:04:01.345Z,33.23
2018-07-01T12:06:36.079Z,33.23
2018-07-01T12:09:06.812Z,33.39
2018-07-01T12:11:35.387Z,33.67
2018-07-01T12:14:07.220Z,33.92
2018-07-01T12:16:35.763Z,33.79
2018-07-01T12:19:07.364Z,34.16
2018-07-01T12:21:36.337Z,34.33
2018-07-01T12:24:05.638Z,34.30
2018-07-01T12:29:07.523Z,34.96
2018-07-01T12:31:40.988Z,35.23
2018-07-01T12:34:09.529Z,35.26
2018-07-01T12:36:39.899Z,35.38
2018-07-01T12:39:10.948Z,35.81
2018-07-01T12:41:39.440Z,36.22
2018-07-01T12:44:08.229Z,36.12
2018-07-01T12:46:36.773Z,36.71
2018-07-01T12:51:45.174Z,37.39
2018-07-01T12:54:13.696Z,37.80
2018-07-01T12:56:42.342Z,38.12
2018-07-01T12:59:16.788Z,38.29
2018-07-01T13:01:45.349Z,38.87
2018-07-01T13:04:13.853Z,39.18
2018-07-01T13:06:42.711Z,39.64
2018-07-01T13:09:12.886Z,40.26
2018-07-01T13:11:41.994Z,40.60
2018-07-01T13:14:16.637Z,41.11
2018-07-01T13:16:45.208Z,41.49
2018-07-01T13:19:13.791Z,41.63
2018-07-01T13:21:42.512Z,42.09
2018-07-01T13:24:11.184Z,42.18
2018-07-01T13:26:40.052Z,42.11
2018-07-01T13:29:08.647Z,42.70
2018-07-01T13:31:42.065Z,42.78
2018-07-01T13:34:10.849Z,43.12
2018-07-01T13:36:43.058Z,43.84
2018-07-01T13:39:12.142Z,43.83
2018-07-01T13:41:42.095Z,44.48
2018-07-01T13:44:12.693Z,45.20
2018-07-01T13:46:41.572Z,45.96
2018-07-01T13:49:16.343Z,46.14
2018-07-01T13:51:44.943Z,46.40
2018-07-01T13:54:13.484Z,46.82
2018-07-01T13:56:42.335Z,47.73
2018-07-01T13:59:10.989Z,48.70
2018-07-01T14:01:39.591Z,48.46
2018-07-01T14:04:08.465Z,49.69
2018-07-01T14:06:37.118Z,50.46
2018-07-01T14:09:08.551Z,50.66
2018-07-01T14:11:43.673Z,51.11
2018-07-01T14:14:12.322Z,51.34
2018-07-01T14:16:40.793Z,51.77
2018-07-01T14:19:10.636Z,51.84
2018-07-01T14:21:39.170Z,51.74
2018-07-01T14:24:07.836Z,51.05
2018-07-01T14:26:42.269Z,50.99
2018-07-01T14:29:10.752Z,51.40
2018-07-01T14:31:39.410Z,52.01
2018-07-01T14:34:08.365Z,52.64
2018-07-01T14:36:36.903Z,52.79
2018-07-01T14:39:17.594Z,53.19
2018-07-01T14:41:46.386Z,53.43
2018-07-01T14:44:14.923Z,53.31
2018-07-01T14:46:44.205Z,53.84
2018-07-01T14:49:19.735Z,53.98
2018-07-01T14:51:48.236Z,52.82
2018-07-01T14:54:16.789Z,52.87
2018-07-01T14:56:45.865Z,53.06
2018-07-01T14:59:25.208Z,53.50
2018-07-01T15:01:54.756Z,53.73
2018-07-01T15:04:23.279Z,53.68
2018-07-01T15:06:54.039Z,53.85
2018-07-01T15:09:22.888Z,54.24
2018-07-01T15:11:51.441Z,54.48
2018-07-01T15:14:24.804Z,54.12
2018-07-01T15:16:53.973Z,53.55
2018-07-01T15:19:22.525Z,53.06
2018-07-01T15:24:47.424Z,53.30
2018-07-01T15:27:16.483Z,53.02
2018-07-01T15:29:45.103Z,52.61
2018-07-01T15:32:13.636Z,52.27
2018-07-01T15:34:42.547Z,51.84
2018-07-01T15:37:11.578Z,51.15
2018-07-01T15:39:40.835Z,50.25
2018-07-01T15:42:09.371Z,49.23
2018-07-01T15:44:37.904Z,48.24
2018-07-01T15:47:06.764Z,46.73
2018-07-01T15:49:39.650Z,45.39
2018-07-01T15:52:08.231Z,43.87
2018-07-01T15:54:37.123Z,42.00
2018-07-01T15:57:05.864Z,40.78
2018-07-01T15:59:34.440Z,40.40
2018-07-01T16:02:04.948Z,40.11
2018-07-01T16:04:36.716Z,39.62
2018-07-01T16:07:05.288Z,39.31
2018-07-01T16:09:34.121Z,39.00
2018-07-01T16:12:03.134Z,38.67
2018-07-01T16:14:32.261Z,38.50
2018-07-01T16:17:02.132Z,38.43
2018-07-01T16:19:30.721Z,38.32
2018-07-01T16:21:59.248Z,38.28
2018-07-01T16:24:29.770Z,38.18
2018-07-01T16:27:03.495Z,38.19
2018-07-01T16:29:32.421Z,37.74
2018-07-01T16:32:01.258Z,37.54
2018-07-01T16:34:29.770Z,37.46
2018-07-01T16:36:58.285Z,37.25
2018-07-01T16:39:27.118Z,36.71
2018-07-01T16:41:55.761Z,36.24
2018-07-01T16:44:28.057Z,35.98
2018-07-01T16:46:56.864Z,35.48
2018-07-01T16:49:25.565Z,35.31
2018-07-01T16:51:54.301Z,34.87
2018-07-01T16:54:24.759Z,34.88
2018-07-01T16:56:53.397Z,34.81
2018-07-01T16:59:21.939Z,34.75
2018-07-01T17:01:50.799Z,34.64
2018-07-01T17:04:19.627Z,34.72
2018-07-01T17:06:48.115Z,34.76
2018-07-01T17:09:16.969Z,34.72
2018-07-01T17:11:45.504Z,34.57
2018-07-01T17:14:14.031Z,34.58
2018-07-01T17:16:45.932Z,34.69
2018-07-01T17:19:14.528Z,34.40
2018-07-01T17:21:43.163Z,34.25
2018-07-01T17:24:14.584Z,33.94
2018-07-01T17:26:43.936Z,33.83
2018-07-01T17:29:13.495Z,33.94
2018-07-01T17:31:47.454Z,33.99
2018-07-01T17:34:15.980Z,34.00
2018-07-01T17:36:44.519Z,33.91
2018-07-01T17:39:13.697Z,33.76
2018-07-01T17:41:42.197Z,33.61
2018-07-01T17:44:10.997Z,33.40
2018-07-01T17:46:39.911Z,33.30
2018-07-01T17:49:08.487Z,33.35
2018-07-01T17:51:37.021Z,33.33
2018-07-01T17:54:06.954Z,33.17
2018-07-01T17:56:35.536Z,32.97
2018-07-01T17:59:04.235Z,32.46
2018-07-01T18:01:33.114Z,32.25
2018-07-01T18:04:03.507Z,32.20
2018-07-01T18:06:32.028Z,32.11
2018-07-01T18:09:00.540Z,31.94
2018-07-01T18:11:29.059Z,31.84
2018-07-01T18:14:00.988Z,31.63
2018-07-01T18:16:29.602Z,31.39
2018-07-01T18:19:04.000Z,31.41
2018-07-01T18:21:48.140Z,31.46
2018-07-01T18:24:27.539Z,31.38
2018-07-01T18:26:30.908Z,31.37
2018-07-01T18:29:08.180Z,31.15
2018-07-01T18:31:28.332Z,31.02
2018-07-01T18:33:57.300Z,30.74
2018-07-01T18:36:25.882Z,30.70
2018-07-01T18:38:54.498Z,30.58
2018-07-01T18:41:23.367Z,30.58
2018-07-01T18:43:51.962Z,30.49
2018-07-01T18:46:20.528Z,30.43
2018-07-01T18:48:49.068Z,30.34
2018-07-01T18:51:17.614Z,30.31
2018-07-01T18:53:46.445Z,30.23
2018-07-01T18:56:15.023Z,30.12
2018-07-01T18:58:50.080Z,29.83
2018-07-01T19:01:18.648Z,29.56
2018-07-01T19:06:26.792Z,29.23
2018-07-01T19:08:55.888Z,29.11
2018-07-01T19:11:24.419Z,28.98
2018-07-01T19:13:56.239Z,28.86
2018-07-01T19:16:24.753Z,28.72
2018-07-01T19:18:55.263Z,28.62
2018-07-01T19:21:24.232Z,28.51
2018-07-01T19:23:52.716Z,28.42
2018-07-01T19:26:21.271Z,28.33
2018-07-01T19:28:51.548Z,28.26
2018-07-01T19:31:20.077Z,28.21
2018-07-01T19:33:48.979Z,28.16
2018-07-01T19:36:17.476Z,28.05
2018-07-01T19:38:46.047Z,27.98
2018-07-01T19:41:14.600Z,27.92
2018-07-01T19:43:43.221Z,27.90
2018-07-01T19:46:11.960Z,27.88
2018-07-01T19:48:40.558Z,27.86
2018-07-01T19:51:09.095Z,27.80
2018-07-01T19:53:37.610Z,27.73
2018-07-01T19:56:06.163Z,27.69
2018-07-01T19:58:34.703Z,27.65
2018-07-01T20:01:03.577Z,27.60
2018-07-01T20:03:32.128Z,27.60
2018-07-01T20:06:00.700Z,27.58
2018-07-01T20:08:29.224Z,27.49
2018-07-01T20:10:59.564Z,27.44
2018-07-01T20:13:28.105Z,27.44
2018-07-01T20:16:00.363Z,27.41
2018-07-01T20:18:28.788Z,27.41
2018-07-01T20:20:57.598Z,27.37
2018-07-01T20:23:26.555Z,27.34
2018-07-01T20:25:55.494Z,27.34
2018-07-01T20:28:24.035Z,27.30
2018-07-01T20:30:52.839Z,27.27
2018-07-01T20:33:26.099Z,27.23
2018-07-01T20:35:54.696Z,27.19
2018-07-01T20:38:25.622Z,27.17
2018-07-01T20:40:54.117Z,27.12
2018-07-01T20:43:22.656Z,27.06
2018-07-01T20:45:53.610Z,27.01
2018-07-01T20:48:22.117Z,26.96
2018-07-01T20:50:50.733Z,26.86
2018-07-01T20:53:19.591Z,26.83
2018-07-01T20:55:54.338Z,26.78
2018-07-01T20:58:22.891Z,26.67
2018-07-01T21:00:51.485Z,26.62
2018-07-01T21:03:19.992Z,26.54
2018-07-01T21:05:48.936Z,26.43
2018-07-01T21:08:23.578Z,26.38
2018-07-01T21:10:52.188Z,26.32
2018-07-01T21:13:20.669Z,26.25
2018-07-01T21:15:49.341Z,26.20
2018-07-01T21:18:18.072Z,26.15
2018-07-01T21:20:46.564Z,26.10
2018-07-01T21:23:15.483Z,26.05
2018-07-01T21:25:44.108Z,25.98
2018-07-01T21:28:12.665Z,25.92
2018-07-01T21:30:41.742Z,25.84
2018-07-01T21:33:10.284Z,25.78
2018-07-01T21:38:18.657Z,25.69
2018-07-01T21:40:47.150Z,25.63
2018-07-01T21:43:16.685Z,25.60
2018-07-01T21:45:45.243Z,25.58
2018-07-01T21:48:13.961Z,25.51
2018-07-01T21:50:42.872Z,25.45
2018-07-01T21:53:13.233Z,25.36
2018-07-01T21:55:41.807Z,25.34
2018-07-01T21:58:10.635Z,25.31
2018-07-01T22:00:39.210Z,25.28
2018-07-01T22:03:07.742Z,25.27
2018-07-01T22:05:36.247Z,25.20
2018-07-01T22:08:06.840Z,25.15
2018-07-01T22:10:46.689Z,25.09
2018-07-01T22:13:31.270Z,25.03
2018-07-01T22:16:08.403Z,24.95
2018-07-01T22:18:36.996Z,24.90
2018-07-01T22:21:11.332Z,24.85
2018-07-01T22:23:40.158Z,24.82
2018-07-01T22:26:08.762Z,24.77
2018-07-01T22:28:37.864Z,24.74
2018-07-01T22:31:06.496Z,24.71
2018-07-01T22:36:14.791Z,24.60
2018-07-01T22:38:43.572Z,24.53
2018-07-01T22:41:12.061Z,24.45
2018-07-01T22:43:44.033Z,24.43
2018-07-01T22:46:12.567Z,24.39
2018-07-01T22:48:41.284Z,24.35
2018-07-01T22:51:10.118Z,24.31
2018-07-01T22:53:38.694Z,24.27
2018-07-01T22:56:07.296Z,24.23
2018-07-01T22:58:36.136Z,24.16
2018-07-01T23:01:14.717Z,24.13
2018-07-01T23:03:43.292Z,24.10
2018-07-01T23:06:11.841Z,24.10
2018-07-01T23:08:40.406Z,24.04
2018-07-01T23:11:08.952Z,23.97
2018-07-01T23:13:40.508Z,23.96
2018-07-01T23:16:09.344Z,23.95
2018-07-01T23:18:39.287Z,23.93
2018-07-01T23:21:07.852Z,23.88
2018-07-01T23:23:36.372Z,23.81
2018-07-01T23:26:06.985Z,23.77
2018-07-01T23:28:36.103Z,23.75
2018-07-01T23:31:07.676Z,23.73
2018-07-01T23:33:36.193Z,23.63
2018-07-01T23:36:05.570Z,23.60
2018-07-01T23:38:34.113Z,23.54
2018-07-01T23:41:06.380Z,23.52
2018-07-01T23:43:34.940Z,23.49
2018-07-01T23:46:04.409Z,23.43
2018-07-01T23:48:33.268Z,23.39
2018-07-01T23:51:01.818Z,23.35
2018-07-01T23:53:30.320Z,23.30
2018-07-01T23:55:59.335Z,23.23
2018-07-01T23:58:27.884Z,23.19
